sensor_id;sensor_type;location;lat;lon;timestamp;temperature;humidity
20574;DHT22;10445;50.216;7.912;2023-01-20T00:00:59;-3.40;82.90
20574;DHT22;10445;50.216;7.912;2023-01-20T00:03:48;-3.30;83.20
20574;DHT22;10445;50.216;7.912;2023-01-20T00:06:37;-3.30;83.60
20574;DHT22;10445;50.216;7.912;2023-01-20T00:09:26;-3.30;84.20
20574;DHT22;10445;50.216;7.912;2023-01-20T00:12:15;-3.20;84.40
20574;DHT22;10445;50.216;7.912;2023-01-20T00:15:05;-3.20;84.30
20574;DHT22;10445;50.216;7.912;2023-01-20T00:17:57;-3.30;84.40
20574;DHT22;10445;50.216;7.912;2023-01-20T00:20:45;-3.20;84.30
20574;DHT22;10445;50.216;7.912;2023-01-20T00:23:34;-3.20;84.60
20574;DHT22;10445;50.216;7.912;2023-01-20T00:26:23;-3.20;84.90
20574;DHT22;10445;50.216;7.912;2023-01-20T00:29:13;-3.20;85.30
20574;DHT22;10445;50.216;7.912;2023-01-20T00:32:02;-3.10;85.80
20574;DHT22;10445;50.216;7.912;2023-01-20T00:34:51;-3.00;86.50
20574;DHT22;10445;50.216;7.912;2023-01-20T00:37:41;-2.90;87.60
20574;DHT22;10445;50.216;7.912;2023-01-20T00:40:30;-2.90;88.00
20574;DHT22;10445;50.216;7.912;2023-01-20T00:43:18;-2.80;88.50
20574;DHT22;10445;50.216;7.912;2023-01-20T00:46:08;-2.70;89.40
20574;DHT22;10445;50.216;7.912;2023-01-20T00:48:57;-2.60;89.40
20574;DHT22;10445;50.216;7.912;2023-01-20T00:51:46;-2.50;90.90
20574;DHT22;10445;50.216;7.912;2023-01-20T00:54:34;-2.40;90.00
20574;DHT22;10445;50.216;7.912;2023-01-20T00:57:23;-2.40;89.90
20574;DHT22;10445;50.216;7.912;2023-01-20T01:00:12;-2.40;89.80
20574;DHT22;10445;50.216;7.912;2023-01-20T01:03:02;-2.40;90.10
20574;DHT22;10445;50.216;7.912;2023-01-20T01:05:51;-2.40;90.40
20574;DHT22;10445;50.216;7.912;2023-01-20T01:08:40;-2.30;91.30
20574;DHT22;10445;50.216;7.912;2023-01-20T01:11:29;-2.20;91.80
20574;DHT22;10445;50.216;7.912;2023-01-20T01:14:18;-2.20;92.10
20574;DHT22;10445;50.216;7.912;2023-01-20T01:17:06;-2.10;92.10
20574;DHT22;10445;50.216;7.912;2023-01-20T01:19:56;-2.00;92.30
20574;DHT22;10445;50.216;7.912;2023-01-20T01:22:45;-2.00;92.70
20574;DHT22;10445;50.216;7.912;2023-01-20T01:25:33;-2.00;92.20
20574;DHT22;10445;50.216;7.912;2023-01-20T01:28:24;-1.90;92.60
20574;DHT22;10445;50.216;7.912;2023-01-20T01:31:12;-1.90;92.10
20574;DHT22;10445;50.216;7.912;2023-01-20T01:34:01;-1.90;90.50
20574;DHT22;10445;50.216;7.912;2023-01-20T01:36:51;-2.00;90.50
20574;DHT22;10445;50.216;7.912;2023-01-20T01:39:40;-2.00;90.50
20574;DHT22;10445;50.216;7.912;2023-01-20T01:42:28;-2.00;90.30
20574;DHT22;10445;50.216;7.912;2023-01-20T01:45:20;-2.00;90.20
20574;DHT22;10445;50.216;7.912;2023-01-20T01:48:09;-2.00;90.70
20574;DHT22;10445;50.216;7.912;2023-01-20T01:51:02;-1.90;92.20
20574;DHT22;10445;50.216;7.912;2023-01-20T01:53:57;-1.90;91.70
20574;DHT22;10445;50.216;7.912;2023-01-20T01:56:48;-1.90;91.40
20574;DHT22;10445;50.216;7.912;2023-01-20T01:59:37;-1.90;91.30
20574;DHT22;10445;50.216;7.912;2023-01-20T02:02:26;-1.90;91.30
20574;DHT22;10445;50.216;7.912;2023-01-20T02:05:15;-1.90;92.10
20574;DHT22;10445;50.216;7.912;2023-01-20T02:08:06;-1.90;91.70
20574;DHT22;10445;50.216;7.912;2023-01-20T02:10:56;-1.90;92.20
20574;DHT22;10445;50.216;7.912;2023-01-20T02:13:45;-1.80;92.10
20574;DHT22;10445;50.216;7.912;2023-01-20T02:16:40;-1.80;91.90
20574;DHT22;10445;50.216;7.912;2023-01-20T02:19:53;-1.80;91.60
20574;DHT22;10445;50.216;7.912;2023-01-20T02:22:47;-1.80;92.20
20574;DHT22;10445;50.216;7.912;2023-01-20T02:26:00;-1.80;92.50
20574;DHT22;10445;50.216;7.912;2023-01-20T02:29:12;-1.80;92.50
20574;DHT22;10445;50.216;7.912;2023-01-20T02:32:13;-1.70;92.50
20574;DHT22;10445;50.216;7.912;2023-01-20T02:35:08;-1.70;92.80
20574;DHT22;10445;50.216;7.912;2023-01-20T02:38:07;-1.70;92.80
20574;DHT22;10445;50.216;7.912;2023-01-20T02:41:06;-1.60;92.80
20574;DHT22;10445;50.216;7.912;2023-01-20T02:44:00;-1.70;91.90
20574;DHT22;10445;50.216;7.912;2023-01-20T02:46:55;-1.70;91.80
20574;DHT22;10445;50.216;7.912;2023-01-20T02:49:53;-1.60;92.50
20574;DHT22;10445;50.216;7.912;2023-01-20T02:52:44;-1.70;91.80
20574;DHT22;10445;50.216;7.912;2023-01-20T02:55:40;-1.70;91.70
20574;DHT22;10445;50.216;7.912;2023-01-20T02:58:33;-1.70;91.90
20574;DHT22;10445;50.216;7.912;2023-01-20T03:01:28;-1.70;92.20
20574;DHT22;10445;50.216;7.912;2023-01-20T03:04:20;-1.70;91.40
20574;DHT22;10445;50.216;7.912;2023-01-20T03:07:12;-1.70;91.60
20574;DHT22;10445;50.216;7.912;2023-01-20T03:10:04;-1.80;91.40
20574;DHT22;10445;50.216;7.912;2023-01-20T03:12:56;-1.80;91.20
20574;DHT22;10445;50.216;7.912;2023-01-20T03:15:55;-1.80;91.30
20574;DHT22;10445;50.216;7.912;2023-01-20T03:18:46;-1.80;91.50
20574;DHT22;10445;50.216;7.912;2023-01-20T03:21:35;-1.80;92.00
20574;DHT22;10445;50.216;7.912;2023-01-20T03:24:28;-1.80;92.00
20574;DHT22;10445;50.216;7.912;2023-01-20T03:27:17;-1.70;92.40
20574;DHT22;10445;50.216;7.912;2023-01-20T03:30:11;-1.70;92.30
20574;DHT22;10445;50.216;7.912;2023-01-20T03:33:01;-1.70;92.40
20574;DHT22;10445;50.216;7.912;2023-01-20T03:35:50;-1.60;93.00
20574;DHT22;10445;50.216;7.912;2023-01-20T03:38:39;-1.60;92.50
20574;DHT22;10445;50.216;7.912;2023-01-20T03:41:36;-1.50;92.30
20574;DHT22;10445;50.216;7.912;2023-01-20T03:44:32;-1.60;92.40
20574;DHT22;10445;50.216;7.912;2023-01-20T03:47:34;-1.50;92.60
20574;DHT22;10445;50.216;7.912;2023-01-20T03:50:34;-1.50;92.40
20574;DHT22;10445;50.216;7.912;2023-01-20T03:53:30;-1.40;92.70
20574;DHT22;10445;50.216;7.912;2023-01-20T03:56:24;-1.50;92.10
20574;DHT22;10445;50.216;7.912;2023-01-20T03:59:17;-1.50;92.30
20574;DHT22;10445;50.216;7.912;2023-01-20T04:02:07;-1.50;92.10
20574;DHT22;10445;50.216;7.912;2023-01-20T04:04:59;-1.50;92.10
20574;DHT22;10445;50.216;7.912;2023-01-20T04:07:49;-1.50;92.00
20574;DHT22;10445;50.216;7.912;2023-01-20T04:10:41;-1.40;91.70
20574;DHT22;10445;50.216;7.912;2023-01-20T04:13:30;-1.50;91.10
20574;DHT22;10445;50.216;7.912;2023-01-20T04:16:21;-1.50;90.80
20574;DHT22;10445;50.216;7.912;2023-01-20T04:19:10;-1.50;90.90
20574;DHT22;10445;50.216;7.912;2023-01-20T04:22:04;-1.50;91.20
20574;DHT22;10445;50.216;7.912;2023-01-20T04:24:56;-1.50;91.30
20574;DHT22;10445;50.216;7.912;2023-01-20T04:27:45;-1.50;91.50
20574;DHT22;10445;50.216;7.912;2023-01-20T04:30:33;-1.50;91.60
20574;DHT22;10445;50.216;7.912;2023-01-20T04:33:24;-1.40;91.10
20574;DHT22;10445;50.216;7.912;2023-01-20T04:36:12;-1.50;90.50
20574;DHT22;10445;50.216;7.912;2023-01-20T04:39:01;-1.40;90.90
20574;DHT22;10445;50.216;7.912;2023-01-20T04:41:49;-1.30;89.70
20574;DHT22;10445;50.216;7.912;2023-01-20T04:44:38;-1.40;88.70
20574;DHT22;10445;50.216;7.912;2023-01-20T04:47:29;-1.40;88.90
20574;DHT22;10445;50.216;7.912;2023-01-20T04:50:19;-1.40;88.90
20574;DHT22;10445;50.216;7.912;2023-01-20T04:53:11;-1.40;89.30
20574;DHT22;10445;50.216;7.912;2023-01-20T04:56:00;-1.40;88.80
20574;DHT22;10445;50.216;7.912;2023-01-20T04:58:48;-1.50;87.90
20574;DHT22;10445;50.216;7.912;2023-01-20T05:01:37;-1.50;88.30
20574;DHT22;10445;50.216;7.912;2023-01-20T05:04:26;-1.60;88.70
20574;DHT22;10445;50.216;7.912;2023-01-20T05:07:16;-1.60;89.10
20574;DHT22;10445;50.216;7.912;2023-01-20T05:10:05;-1.50;90.00
20574;DHT22;10445;50.216;7.912;2023-01-20T05:12:54;-1.50;90.60
20574;DHT22;10445;50.216;7.912;2023-01-20T05:15:43;-1.50;90.60
20574;DHT22;10445;50.216;7.912;2023-01-20T05:18:32;-1.50;90.90
20574;DHT22;10445;50.216;7.912;2023-01-20T05:21:21;-1.50;90.80
20574;DHT22;10445;50.216;7.912;2023-01-20T05:24:26;-1.50;91.30
20574;DHT22;10445;50.216;7.912;2023-01-20T05:27:15;-1.50;91.10
20574;DHT22;10445;50.216;7.912;2023-01-20T05:30:04;-1.50;91.00
20574;DHT22;10445;50.216;7.912;2023-01-20T05:32:53;-1.50;90.90
20574;DHT22;10445;50.216;7.912;2023-01-20T05:35:42;-1.50;91.00
20574;DHT22;10445;50.216;7.912;2023-01-20T05:38:30;-1.50;91.40
20574;DHT22;10445;50.216;7.912;2023-01-20T05:41:21;-1.50;91.00
20574;DHT22;10445;50.216;7.912;2023-01-20T05:44:09;-1.40;91.50
20574;DHT22;10445;50.216;7.912;2023-01-20T05:46:58;-1.40;90.40
20574;DHT22;10445;50.216;7.912;2023-01-20T05:49:46;-1.40;90.00
20574;DHT22;10445;50.216;7.912;2023-01-20T05:52:35;-1.40;90.20
20574;DHT22;10445;50.216;7.912;2023-01-20T05:55:23;-1.40;90.10
20574;DHT22;10445;50.216;7.912;2023-01-20T05:58:14;-1.40;90.40
20574;DHT22;10445;50.216;7.912;2023-01-20T06:01:04;-1.40;89.90
20574;DHT22;10445;50.216;7.912;2023-01-20T06:03:53;-1.40;90.80
20574;DHT22;10445;50.216;7.912;2023-01-20T06:06:41;-1.40;90.00
20574;DHT22;10445;50.216;7.912;2023-01-20T06:09:30;-1.40;89.80
20574;DHT22;10445;50.216;7.912;2023-01-20T06:12:19;-1.40;90.10
20574;DHT22;10445;50.216;7.912;2023-01-20T06:15:10;-1.40;90.60
20574;DHT22;10445;50.216;7.912;2023-01-20T06:17:59;-1.40;89.40
20574;DHT22;10445;50.216;7.912;2023-01-20T06:20:48;-1.40;88.60
20574;DHT22;10445;50.216;7.912;2023-01-20T06:23:36;-1.40;89.40
20574;DHT22;10445;50.216;7.912;2023-01-20T06:26:25;-1.50;89.30
20574;DHT22;10445;50.216;7.912;2023-01-20T06:29:14;-1.60;89.60
20574;DHT22;10445;50.216;7.912;2023-01-20T06:32:04;-1.60;89.70
20574;DHT22;10445;50.216;7.912;2023-01-20T06:34:53;-1.60;90.10
20574;DHT22;10445;50.216;7.912;2023-01-20T06:37:41;-1.70;89.90
20574;DHT22;10445;50.216;7.912;2023-01-20T06:40:30;-1.80;89.70
20574;DHT22;10445;50.216;7.912;2023-01-20T06:43:19;-1.70;90.70
20574;DHT22;10445;50.216;7.912;2023-01-20T06:46:10;-1.80;90.50
20574;DHT22;10445;50.216;7.912;2023-01-20T06:49:01;-1.90;90.70
20574;DHT22;10445;50.216;7.912;2023-01-20T06:51:49;-1.90;91.10
20574;DHT22;10445;50.216;7.912;2023-01-20T06:54:38;-2.00;90.80
20574;DHT22;10445;50.216;7.912;2023-01-20T06:57:27;-2.00;90.60
20574;DHT22;10445;50.216;7.912;2023-01-20T07:00:16;-2.10;90.60
20574;DHT22;10445;50.216;7.912;2023-01-20T07:03:05;-2.20;90.30
20574;DHT22;10445;50.216;7.912;2023-01-20T07:05:58;-2.30;90.10
20574;DHT22;10445;50.216;7.912;2023-01-20T07:08:47;-2.40;90.40
20574;DHT22;10445;50.216;7.912;2023-01-20T07:12:02;-2.40;91.20
20574;DHT22;10445;50.216;7.912;2023-01-20T07:14:51;-2.30;92.00
20574;DHT22;10445;50.216;7.912;2023-01-20T07:17:40;-2.20;92.70
20574;DHT22;10445;50.216;7.912;2023-01-20T07:20:28;-2.10;93.60
20574;DHT22;10445;50.216;7.912;2023-01-20T07:23:19;-2.00;94.30
20574;DHT22;10445;50.216;7.912;2023-01-20T07:26:08;-1.90;94.30
20574;DHT22;10445;50.216;7.912;2023-01-20T07:28:58;-1.90;94.00
20574;DHT22;10445;50.216;7.912;2023-01-20T07:31:46;-1.90;93.80
20574;DHT22;10445;50.216;7.912;2023-01-20T07:34:35;-2.00;93.30
20574;DHT22;10445;50.216;7.912;2023-01-20T07:37:24;-2.00;93.30
20574;DHT22;10445;50.216;7.912;2023-01-20T07:40:14;-2.00;93.40
20574;DHT22;10445;50.216;7.912;2023-01-20T07:43:03;-1.90;93.80
20574;DHT22;10445;50.216;7.912;2023-01-20T07:45:54;-1.90;93.90
20574;DHT22;10445;50.216;7.912;2023-01-20T07:48:43;-1.80;94.50
20574;DHT22;10445;50.216;7.912;2023-01-20T07:51:32;-1.70;94.40
20574;DHT22;10445;50.216;7.912;2023-01-20T07:54:20;-1.70;93.30
20574;DHT22;10445;50.216;7.912;2023-01-20T07:57:10;-1.70;93.20
20574;DHT22;10445;50.216;7.912;2023-01-20T07:59:59;-1.60;92.70
20574;DHT22;10445;50.216;7.912;2023-01-20T08:02:48;-1.60;92.50
20574;DHT22;10445;50.216;7.912;2023-01-20T08:05:37;-1.60;92.30
20574;DHT22;10445;50.216;7.912;2023-01-20T08:08:25;-1.60;90.80
20574;DHT22;10445;50.216;7.912;2023-01-20T08:11:16;-1.60;89.80
20574;DHT22;10445;50.216;7.912;2023-01-20T08:14:06;-1.60;89.30
20574;DHT22;10445;50.216;7.912;2023-01-20T08:16:55;-1.60;89.90
20574;DHT22;10445;50.216;7.912;2023-01-20T08:19:43;-1.60;90.10
20574;DHT22;10445;50.216;7.912;2023-01-20T08:22:33;-1.50;90.60
20574;DHT22;10445;50.216;7.912;2023-01-20T08:25:22;-1.30;92.10
20574;DHT22;10445;50.216;7.912;2023-01-20T08:28:11;-1.10;93.10
20574;DHT22;10445;50.216;7.912;2023-01-20T08:31:04;-0.90;92.20
20574;DHT22;10445;50.216;7.912;2023-01-20T08:33:54;-0.90;89.40
20574;DHT22;10445;50.216;7.912;2023-01-20T08:36:44;-0.50;90.50
20574;DHT22;10445;50.216;7.912;2023-01-20T08:39:34;-0.30;78.10
20574;DHT22;10445;50.216;7.912;2023-01-20T08:42:22;-0.40;70.90
20574;DHT22;10445;50.216;7.912;2023-01-20T08:45:11;-0.70;70.90
20574;DHT22;10445;50.216;7.912;2023-01-20T08:48:02;-0.80;73.30
20574;DHT22;10445;50.216;7.912;2023-01-20T08:50:50;-0.90;74.50
20574;DHT22;10445;50.216;7.912;2023-01-20T08:53:39;-0.90;75.00
20574;DHT22;10445;50.216;7.912;2023-01-20T08:56:28;-0.90;75.90
20574;DHT22;10445;50.216;7.912;2023-01-20T08:59:17;-0.90;76.90
20574;DHT22;10445;50.216;7.912;2023-01-20T09:02:08;-0.70;78.90
20574;DHT22;10445;50.216;7.912;2023-01-20T09:04:58;-0.60;78.60
20574;DHT22;10445;50.216;7.912;2023-01-20T09:07:46;-0.40;78.30
20574;DHT22;10445;50.216;7.912;2023-01-20T09:10:35;-0.30;71.50
20574;DHT22;10445;50.216;7.912;2023-01-20T09:13:24;-0.40;68.00
20574;DHT22;10445;50.216;7.912;2023-01-20T09:16:13;-0.20;70.80
20574;DHT22;10445;50.216;7.912;2023-01-20T09:19:03;0.80;80.50
20574;DHT22;10445;50.216;7.912;2023-01-20T09:21:53;2.10;64.20
20574;DHT22;10445;50.216;7.912;2023-01-20T09:24:41;3.40;41.80
20574;DHT22;10445;50.216;7.912;2023-01-20T09:27:30;3.60;20.90
20574;DHT22;10445;50.216;7.912;2023-01-20T09:30:19;3.30;23.60
20574;DHT22;10445;50.216;7.912;2023-01-20T09:33:09;3.20;24.70
20574;DHT22;10445;50.216;7.912;2023-01-20T09:35:58;3.10;25.50
20574;DHT22;10445;50.216;7.912;2023-01-20T09:38:48;3.60;22.80
20574;DHT22;10445;50.216;7.912;2023-01-20T09:41:54;3.70;21.10
20574;DHT22;10445;50.216;7.912;2023-01-20T09:45:09;3.20;18.70
20574;DHT22;10445;50.216;7.912;2023-01-20T09:48:12;2.60;25.40
20574;DHT22;10445;50.216;7.912;2023-01-20T09:51:26;2.20;30.90
20574;DHT22;10445;50.216;7.912;2023-01-20T09:54:42;2.20;36.90
20574;DHT22;10445;50.216;7.912;2023-01-20T09:57:36;2.20;33.80
20574;DHT22;10445;50.216;7.912;2023-01-20T10:00:28;1.90;35.70
20574;DHT22;10445;50.216;7.912;2023-01-20T10:03:23;2.00;35.80
20574;DHT22;10445;50.216;7.912;2023-01-20T10:06:20;1.90;35.20
20574;DHT22;10445;50.216;7.912;2023-01-20T10:09:20;1.50;37.20
20574;DHT22;10445;50.216;7.912;2023-01-20T10:12:15;1.40;40.00
20574;DHT22;10445;50.216;7.912;2023-01-20T10:15:07;1.30;42.10
20574;DHT22;10445;50.216;7.912;2023-01-20T10:18:02;1.40;43.90
20574;DHT22;10445;50.216;7.912;2023-01-20T10:20:55;2.30;42.60
20574;DHT22;10445;50.216;7.912;2023-01-20T10:23:49;3.40;27.90
20574;DHT22;10445;50.216;7.912;2023-01-20T10:26:45;3.70;17.50
20574;DHT22;10445;50.216;7.912;2023-01-20T10:29:40;3.60;18.00
20574;DHT22;10445;50.216;7.912;2023-01-20T10:32:33;3.30;19.10
20574;DHT22;10445;50.216;7.912;2023-01-20T10:35:26;3.40;21.20
20574;DHT22;10445;50.216;7.912;2023-01-20T10:38:20;3.60;16.00
20574;DHT22;10445;50.216;7.912;2023-01-20T10:41:15;3.80;17.80
20574;DHT22;10445;50.216;7.912;2023-01-20T10:44:09;4.00;14.80
20574;DHT22;10445;50.216;7.912;2023-01-20T10:47:14;3.80;15.10
20574;DHT22;10445;50.216;7.912;2023-01-20T10:50:16;3.20;15.50
20574;DHT22;10445;50.216;7.912;2023-01-20T10:53:19;2.40;21.50
20574;DHT22;10445;50.216;7.912;2023-01-20T10:56:40;1.80;28.60
20574;DHT22;10445;50.216;7.912;2023-01-20T10:59:31;1.30;37.80
20574;DHT22;10445;50.216;7.912;2023-01-20T11:02:24;1.10;41.50
20574;DHT22;10445;50.216;7.912;2023-01-20T11:05:16;0.90;43.50
20574;DHT22;10445;50.216;7.912;2023-01-20T11:08:13;0.80;44.50
20574;DHT22;10445;50.216;7.912;2023-01-20T11:11:10;0.70;48.00
20574;DHT22;10445;50.216;7.912;2023-01-20T11:13:59;0.90;49.90
20574;DHT22;10445;50.216;7.912;2023-01-20T11:16:52;1.40;43.10
20574;DHT22;10445;50.216;7.912;2023-01-20T11:19:50;1.70;37.80
20574;DHT22;10445;50.216;7.912;2023-01-20T11:22:43;1.90;35.90
20574;DHT22;10445;50.216;7.912;2023-01-20T11:25:32;1.60;36.10
20574;DHT22;10445;50.216;7.912;2023-01-20T11:28:22;1.40;37.40
20574;DHT22;10445;50.216;7.912;2023-01-20T11:31:11;1.30;39.50
20574;DHT22;10445;50.216;7.912;2023-01-20T11:34:21;1.40;40.80
20574;DHT22;10445;50.216;7.912;2023-01-20T11:37:36;1.30;41.60
20574;DHT22;10445;50.216;7.912;2023-01-20T11:40:27;1.30;44.20
20574;DHT22;10445;50.216;7.912;2023-01-20T11:43:27;1.30;42.20
20574;DHT22;10445;50.216;7.912;2023-01-20T11:46:26;1.30;42.60
20574;DHT22;10445;50.216;7.912;2023-01-20T11:49:33;1.40;41.90
20574;DHT22;10445;50.216;7.912;2023-01-20T11:52:24;1.30;41.20
20574;DHT22;10445;50.216;7.912;2023-01-20T11:55:22;1.40;40.40
20574;DHT22;10445;50.216;7.912;2023-01-20T11:58:26;1.40;39.90
20574;DHT22;10445;50.216;7.912;2023-01-20T12:01:22;1.40;40.50
20574;DHT22;10445;50.216;7.912;2023-01-20T12:04:34;1.40;40.60
20574;DHT22;10445;50.216;7.912;2023-01-20T12:07:26;1.40;39.90
20574;DHT22;10445;50.216;7.912;2023-01-20T12:14:20;1.10;43.00
20574;DHT22;10445;50.216;7.912;2023-01-20T12:17:49;1.10;44.60
20574;DHT22;10445;50.216;7.912;2023-01-20T12:21:30;1.30;43.50
20574;DHT22;10445;50.216;7.912;2023-01-20T12:24:35;1.40;39.60
20574;DHT22;10445;50.216;7.912;2023-01-20T12:27:55;1.30;41.30
20574;DHT22;10445;50.216;7.912;2023-01-20T12:31:11;1.30;42.50
20574;DHT22;10445;50.216;7.912;2023-01-20T12:34:09;1.30;43.80
20574;DHT22;10445;50.216;7.912;2023-01-20T12:37:22;1.30;43.70
20574;DHT22;10445;50.216;7.912;2023-01-20T12:40:24;1.20;44.80
20574;DHT22;10445;50.216;7.912;2023-01-20T12:43:45;1.20;46.80
20574;DHT22;10445;50.216;7.912;2023-01-20T12:46:45;1.40;46.90
20574;DHT22;10445;50.216;7.912;2023-01-20T12:49:46;1.40;42.20
20574;DHT22;10445;50.216;7.912;2023-01-20T12:52:48;1.50;40.10
20574;DHT22;10445;50.216;7.912;2023-01-20T12:55:47;1.70;40.20
20574;DHT22;10445;50.216;7.912;2023-01-20T12:58:46;1.90;35.40
20574;DHT22;10445;50.216;7.912;2023-01-20T13:02:22;1.70;37.30
20574;DHT22;10445;50.216;7.912;2023-01-20T13:06:16;1.60;35.70
20574;DHT22;10445;50.216;7.912;2023-01-20T13:09:26;1.30;39.80
20574;DHT22;10445;50.216;7.912;2023-01-20T13:12:38;1.40;42.90
20574;DHT22;10445;50.216;7.912;2023-01-20T13:15:35;1.60;39.60
20574;DHT22;10445;50.216;7.912;2023-01-20T13:18:48;1.60;38.60
20574;DHT22;10445;50.216;7.912;2023-01-20T13:22:08;1.60;37.20
20574;DHT22;10445;50.216;7.912;2023-01-20T13:24:59;1.50;35.70
20574;DHT22;10445;50.216;7.912;2023-01-20T13:27:51;1.40;37.90
20574;DHT22;10445;50.216;7.912;2023-01-20T13:30:43;1.30;36.70
20574;DHT22;10445;50.216;7.912;2023-01-20T13:33:37;1.30;39.60
20574;DHT22;10445;50.216;7.912;2023-01-20T13:36:28;1.20;41.80
20574;DHT22;10445;50.216;7.912;2023-01-20T13:39:39;1.20;43.30
20574;DHT22;10445;50.216;7.912;2023-01-20T13:42:48;1.20;42.90
20574;DHT22;10445;50.216;7.912;2023-01-20T13:45:38;1.20;41.80
20574;DHT22;10445;50.216;7.912;2023-01-20T13:48:28;1.10;42.40
20574;DHT22;10445;50.216;7.912;2023-01-20T13:51:44;1.10;45.40
20574;DHT22;10445;50.216;7.912;2023-01-20T13:54:39;1.10;45.40
20574;DHT22;10445;50.216;7.912;2023-01-20T13:57:39;1.10;46.00
20574;DHT22;10445;50.216;7.912;2023-01-20T14:00:28;1.10;46.70
20574;DHT22;10445;50.216;7.912;2023-01-20T14:03:21;1.10;47.10
20574;DHT22;10445;50.216;7.912;2023-01-20T14:06:20;1.00;49.10
20574;DHT22;10445;50.216;7.912;2023-01-20T14:09:21;1.10;52.20
20574;DHT22;10445;50.216;7.912;2023-01-20T14:12:12;1.10;52.10
20574;DHT22;10445;50.216;7.912;2023-01-20T14:15:01;1.00;51.60
20574;DHT22;10445;50.216;7.912;2023-01-20T14:17:54;1.00;52.50
20574;DHT22;10445;50.216;7.912;2023-01-20T14:20:58;0.90;57.20
20574;DHT22;10445;50.216;7.912;2023-01-20T14:23:50;0.80;57.50
20574;DHT22;10445;50.216;7.912;2023-01-20T14:26:41;0.80;57.60
20574;DHT22;10445;50.216;7.912;2023-01-20T14:29:31;0.80;59.30
20574;DHT22;10445;50.216;7.912;2023-01-20T14:32:22;0.80;60.40
20574;DHT22;10445;50.216;7.912;2023-01-20T14:35:14;0.70;61.60
20574;DHT22;10445;50.216;7.912;2023-01-20T14:42:16;0.70;61.90
20574;DHT22;10445;50.216;7.912;2023-01-20T14:45:16;0.60;63.90
20574;DHT22;10445;50.216;7.912;2023-01-20T14:48:06;0.60;64.30
20574;DHT22;10445;50.216;7.912;2023-01-20T14:50:55;0.50;65.90
20574;DHT22;10445;50.216;7.912;2023-01-20T14:53:43;0.50;67.40
20574;DHT22;10445;50.216;7.912;2023-01-20T14:56:32;0.40;69.30
20574;DHT22;10445;50.216;7.912;2023-01-20T14:59:23;0.40;69.70
20574;DHT22;10445;50.216;7.912;2023-01-20T15:02:17;0.30;70.00
20574;DHT22;10445;50.216;7.912;2023-01-20T15:05:25;0.40;69.80
20574;DHT22;10445;50.216;7.912;2023-01-20T15:08:21;0.30;71.90
20574;DHT22;10445;50.216;7.912;2023-01-20T15:11:24;0.20;73.00
20574;DHT22;10445;50.216;7.912;2023-01-20T15:14:17;0.10;76.10
20574;DHT22;10445;50.216;7.912;2023-01-20T15:17:09;0.20;79.80
20574;DHT22;10445;50.216;7.912;2023-01-20T15:19:57;0.10;83.00
20574;DHT22;10445;50.216;7.912;2023-01-20T15:22:46;0.10;83.80
20574;DHT22;10445;50.216;7.912;2023-01-20T15:25:37;0.00;85.00
20574;DHT22;10445;50.216;7.912;2023-01-20T15:28:27;0.00;86.60
20574;DHT22;10445;50.216;7.912;2023-01-20T15:31:16;0.00;88.00
20574;DHT22;10445;50.216;7.912;2023-01-20T15:34:07;0.00;89.10
20574;DHT22;10445;50.216;7.912;2023-01-20T15:36:56;-0.10;89.30
20574;DHT22;10445;50.216;7.912;2023-01-20T15:39:44;-0.10;89.30
20574;DHT22;10445;50.216;7.912;2023-01-20T15:42:33;-0.10;89.70
20574;DHT22;10445;50.216;7.912;2023-01-20T15:45:22;-0.10;90.30
20574;DHT22;10445;50.216;7.912;2023-01-20T15:48:16;-0.20;91.20
20574;DHT22;10445;50.216;7.912;2023-01-20T15:51:11;-0.20;91.50
20574;DHT22;10445;50.216;7.912;2023-01-20T15:54:04;-0.20;92.20
20574;DHT22;10445;50.216;7.912;2023-01-20T15:57:25;-0.20;92.60
20574;DHT22;10445;50.216;7.912;2023-01-20T16:00:47;-0.30;93.20
20574;DHT22;10445;50.216;7.912;2023-01-20T16:03:40;-0.30;94.80
20574;DHT22;10445;50.216;7.912;2023-01-20T16:11:01;-0.40;96.50
20574;DHT22;10445;50.216;7.912;2023-01-20T16:14:06;-0.50;97.50
20574;DHT22;10445;50.216;7.912;2023-01-20T16:17:14;-0.40;97.80
20574;DHT22;10445;50.216;7.912;2023-01-20T16:20:23;-0.50;98.00
20574;DHT22;10445;50.216;7.912;2023-01-20T16:23:28;-0.50;96.80
20574;DHT22;10445;50.216;7.912;2023-01-20T16:26:26;-0.50;97.40
20574;DHT22;10445;50.216;7.912;2023-01-20T16:29:18;-0.50;97.50
20574;DHT22;10445;50.216;7.912;2023-01-20T16:32:07;-0.50;98.30
20574;DHT22;10445;50.216;7.912;2023-01-20T16:34:56;-0.50;97.90
20574;DHT22;10445;50.216;7.912;2023-01-20T16:37:45;-0.60;97.30
20574;DHT22;10445;50.216;7.912;2023-01-20T16:40:35;-0.60;97.60
20574;DHT22;10445;50.216;7.912;2023-01-20T16:43:25;-0.70;95.80
20574;DHT22;10445;50.216;7.912;2023-01-20T16:46:17;-0.80;93.70
20574;DHT22;10445;50.216;7.912;2023-01-20T16:49:06;-0.90;94.00
20574;DHT22;10445;50.216;7.912;2023-01-20T16:51:55;-0.90;94.80
20574;DHT22;10445;50.216;7.912;2023-01-20T16:54:45;-1.00;94.70
20574;DHT22;10445;50.216;7.912;2023-01-20T16:57:34;-1.00;94.10
20574;DHT22;10445;50.216;7.912;2023-01-20T17:00:24;-1.00;94.50
20574;DHT22;10445;50.216;7.912;2023-01-20T17:03:12;-1.00;94.70
20574;DHT22;10445;50.216;7.912;2023-01-20T17:06:08;-1.10;92.90
20574;DHT22;10445;50.216;7.912;2023-01-20T17:08:58;-1.10;93.40
20574;DHT22;10445;50.216;7.912;2023-01-20T17:11:47;-1.10;93.00
20574;DHT22;10445;50.216;7.912;2023-01-20T17:14:38;-1.10;93.20
20574;DHT22;10445;50.216;7.912;2023-01-20T17:17:28;-1.10;94.00
20574;DHT22;10445;50.216;7.912;2023-01-20T17:20:17;-1.10;93.80
20574;DHT22;10445;50.216;7.912;2023-01-20T17:23:05;-1.10;94.60
20574;DHT22;10445;50.216;7.912;2023-01-20T17:25:54;-1.00;94.70
20574;DHT22;10445;50.216;7.912;2023-01-20T17:28:43;-1.10;94.70
20574;DHT22;10445;50.216;7.912;2023-01-20T17:31:46;-1.00;95.00
20574;DHT22;10445;50.216;7.912;2023-01-20T17:34:36;-1.00;95.20
20574;DHT22;10445;50.216;7.912;2023-01-20T17:37:25;-1.00;94.70
20574;DHT22;10445;50.216;7.912;2023-01-20T17:40:13;-0.90;94.70
20574;DHT22;10445;50.216;7.912;2023-01-20T17:43:03;-1.00;94.50
20574;DHT22;10445;50.216;7.912;2023-01-20T17:45:52;-0.90;94.80
20574;DHT22;10445;50.216;7.912;2023-01-20T17:48:40;-0.90;94.40
20574;DHT22;10445;50.216;7.912;2023-01-20T17:51:31;-0.90;93.90
20574;DHT22;10445;50.216;7.912;2023-01-20T17:54:19;-0.90;94.00
20574;DHT22;10445;50.216;7.912;2023-01-20T18:05:37;-0.80;94.80
20574;DHT22;10445;50.216;7.912;2023-01-20T19:52:33;-0.80;96.50
20574;DHT22;10445;50.216;7.912;2023-01-20T19:55:31;-0.80;97.30
20574;DHT22;10445;50.216;7.912;2023-01-20T19:59:10;-0.80;97.80
20574;DHT22;10445;50.216;7.912;2023-01-20T20:03:35;-0.90;98.30
20574;DHT22;10445;50.216;7.912;2023-01-20T20:07:38;-1.00;99.80
20574;DHT22;10445;50.216;7.912;2023-01-20T20:19:43;-1.00;99.90
20574;DHT22;10445;50.216;7.912;2023-01-20T21:49:23;-0.80;99.90
